地図

経路データ

SID SEASON NUMBER BASIN SUBBASIN NAME ISO_TIME NATURE LAT LON WMO_WIND WMO_PRES WMO_AGENCY TRACK_TYPE DIST2LAND LANDFALL IFLAG USA_AGENCY USA_ATCF_ID USA_LAT USA_LON USA_RECORD USA_STATUS USA_WIND USA_PRES USA_SSHS USA_R34_NE USA_R34_SE USA_R34_SW USA_R34_NW USA_R50_NE USA_R50_SE USA_R50_SW USA_R50_NW USA_R64_NE USA_R64_SE USA_R64_SW USA_R64_NW USA_POCI USA_ROCI USA_RMW USA_EYE TOKYO_LAT TOKYO_LON TOKYO_GRADE TOKYO_WIND TOKYO_PRES TOKYO_R50_DIR TOKYO_R50_LONG TOKYO_R50_SHORT TOKYO_R30_DIR TOKYO_R30_LONG TOKYO_R30_SHORT TOKYO_LAND CMA_LAT CMA_LON CMA_CAT CMA_WIND CMA_PRES HKO_LAT HKO_LON HKO_CAT HKO_WIND HKO_PRES NEWDELHI_LAT NEWDELHI_LON NEWDELHI_GRADE NEWDELHI_WIND NEWDELHI_PRES NEWDELHI_CI NEWDELHI_DP NEWDELHI_POCI REUNION_LAT REUNION_LON REUNION_TYPE REUNION_WIND REUNION_PRES REUNION_TNUM REUNION_CI REUNION_RMW REUNION_R34_NE REUNION_R34_SE REUNION_R34_SW REUNION_R34_NW REUNION_R50_NE REUNION_R50_SE REUNION_R50_SW REUNION_R50_NW REUNION_R64_NE REUNION_R64_SE REUNION_R64_SW REUNION_R64_NW BOM_LAT BOM_LON BOM_TYPE BOM_WIND BOM_PRES BOM_TNUM BOM_CI BOM_RMW BOM_R34_NE BOM_R34_SE BOM_R34_SW BOM_R34_NW BOM_R50_NE BOM_R50_SE BOM_R50_SW BOM_R50_NW BOM_R64_NE BOM_R64_SE BOM_R64_SW BOM_R64_NW BOM_ROCI BOM_POCI BOM_EYE BOM_POS_METHOD BOM_PRES_METHOD NADI_LAT NADI_LON NADI_CAT NADI_WIND NADI_PRES WELLINGTON_LAT WELLINGTON_LON WELLINGTON_WIND WELLINGTON_PRES DS824_LAT DS824_LON DS824_STAGE DS824_WIND DS824_PRES TD9636_LAT TD9636_LON TD9636_STAGE TD9636_WIND TD9636_PRES TD9635_LAT TD9635_LON TD9635_WIND TD9635_PRES TD9635_ROCI NEUMANN_LAT NEUMANN_LON NEUMANN_CLASS NEUMANN_WIND NEUMANN_PRES MLC_LAT MLC_LON MLC_CLASS MLC_WIND MLC_PRES USA_GUST BOM_GUST BOM_GUST_PER REUNION_GUST REUNION_GUST_PER USA_SEAHGT USA_SEARAD_NE USA_SEARAD_SE USA_SEARAD_SW USA_SEARAD_NW STORM_SPEED STORM_DIR
1953275N14258 1953 65 EP MM NOT_NAMED 1953-10-02 00:00:00 TS 13.9000 -101.700 75 hurdat_epa main 379 352 O________OO___ hurdat_epa EP041953 13.9000 -101.700 HU 75 1 13.9000 -101.700 TC 75 13.9000 -101.700 4 7 336
1953275N14258 1953 65 EP MM NOT_NAMED 1953-10-02 03:00:00 TS 14.2048 -101.844 main 352 327 P________PP___ EP041953 14.2150 -101.845 HU 75 1 14.2150 -101.845 TC 75 14.1640 -101.841 4 7 334
1953275N14258 1953 65 EP MM NOT_NAMED 1953-10-02 06:00:00 TS 14.4865 -101.999 75 hurdat_epa main 327 310 O________OP___ hurdat_epa EP041953 14.5000 -102.000 HU 75 1 14.5000 -102.000 TC 75 14.4324 -101.995 4 6 329
1953275N14258 1953 65 EP MM NOT_NAMED 1953-10-02 09:00:00 TS 14.7359 -102.178 main 313 292 P________PP___ EP041953 14.7425 -102.178 HU 75 1 14.7425 -102.178 TC 75 14.7096 -102.177 4 6 323
1953275N14258 1953 65 EP MM NOT_NAMED 1953-10-02 12:00:00 TS 15.0000 -102.400 75 hurdat_epa main 292 275 O________OO___ hurdat_epa EP041953 15.0000 -102.400 HU 75 1 15.0000 -102.400 TC 75 15.0000 -102.400 4 8 321
1953275N14258 1953 65 EP MM NOT_NAMED 1953-10-02 15:00:00 TS 15.3353 -102.677 main 281 257 P________PP___ EP041953 15.3425 -102.677 HU 75 1 15.3425 -102.677 TC 75 15.3066 -102.674 4 9 320
1953275N14258 1953 65 EP MM NOT_NAMED 1953-10-02 18:00:00 TS 15.6855 -102.998 75 hurdat_epa main 257 235 O________OP___ hurdat_epa EP041953 15.7000 -103.000 HU 75 1 15.7000 -103.000 TC 75 15.6275 -102.990 4 9 316
1953275N14258 1953 65 EP MM NOT_NAMED 1953-10-02 21:00:00 TS 15.9919 -103.335 main 235 218 P________PP___ EP041953 15.9999 -103.335 HU 75 1 15.9999 -103.335 TC 75 15.9597 -103.336 4 9 312
1953275N14258 1953 65 EP MM NOT_NAMED 1953-10-03 00:00:00 TS 16.3000 -103.700 75 hurdat_epa main 218 197 O________OO___ hurdat_epa EP041953 16.3000 -103.700 HU 75 1 16.3000 -103.700 TC 75 16.3000 -103.700 4 10 312
1953275N14258 1953 65 EP MM NOT_NAMED 1953-10-03 03:00:00 TS 16.6442 -104.097 main 200 178 P________PP___ EP041953 16.6425 -104.100 HU 75 1 16.6425 -104.100 TC 75 16.6511 -104.085 4 10 313
1953275N14258 1953 65 EP MM NOT_NAMED 1953-10-03 06:00:00 TS 17.0016 -104.496 75 hurdat_epa main 179 176 O________OP___ hurdat_epa EP041953 17.0000 -104.500 HU 75 1 17.0000 -104.500 TC 75 17.0078 -104.480 4 10 314
1953275N14258 1953 65 EP MM NOT_NAMED 1953-10-03 09:00:00 TS 17.3581 -104.876 main 179 173 P________PP___ EP041953 17.3575 -104.880 HU 75 1 17.3575 -104.880 TC 75 17.3605 -104.860 4 10 316
1953275N14258 1953 65 EP MM NOT_NAMED 1953-10-03 12:00:00 TS 17.7000 -105.200 75 hurdat_epa main 173 148 O________OO___ hurdat_epa EP041953 17.7000 -105.200 HU 75 1 17.7000 -105.200 TC 75 17.7000 -105.200 4 8 322
1953275N14258 1953 65 EP MM NOT_NAMED 1953-10-03 15:00:00 TS 18.0135 -105.419 main 148 131 P________PP___ EP041953 18.0074 -105.415 HU 75 1 18.0074 -105.415 TC 75 18.0380 -105.436 4 7 328
1953275N14258 1953 65 EP MM NOT_NAMED 1953-10-03 18:00:00 TS 18.3118 -105.607 75 hurdat_epa main 131 122 O________OP___ hurdat_epa EP041953 18.3000 -105.600 HU 75 1 18.3000 -105.600 TC 75 18.3589 -105.636 4 7 328
1953275N14258 1953 65 EP MM NOT_NAMED 1953-10-03 21:00:00 TS 18.6220 -105.825 main 122 115 P________PP___ EP041953 18.6149 -105.820 HU 75 1 18.6149 -105.820 TC 75 18.6504 -105.842 4 8 322
1953275N14258 1953 65 EP MM NOT_NAMED 1953-10-04 00:00:00 TS 18.9000 -106.100 75 hurdat_epa main 122 122 O________OO___ hurdat_epa EP041953 18.9000 -106.100 HU 75 1 18.9000 -106.100 TC 75 18.9000 -106.100 4 8 310
1953275N14258 1953 65 EP MM NOT_NAMED 1953-10-04 03:00:00 TS 19.1251 -106.469 main 142 137 P________PP___ EP041953 19.1300 -106.470 HU 75 1 19.1300 -106.470 TC 75 19.1055 -106.464 4 9 298
1953275N14258 1953 65 EP MM NOT_NAMED 1953-10-04 06:00:00 TS 19.2935 -106.897 75 hurdat_epa main 166 166 O________OP___ hurdat_epa EP041953 19.3000 -106.900 HU 75 1 19.3000 -106.900 TC 75 19.2677 -106.883 4 9 290
1953275N14258 1953 65 EP MM NOT_NAMED 1953-10-04 09:00:00 TS 19.4172 -107.341 main 200 200 P________PP___ EP041953 19.4224 -107.343 HU 75 1 19.4224 -107.343 TC 75 19.3960 -107.335 4 9 284
1953275N14258 1953 65 EP MM NOT_NAMED 1953-10-04 12:00:00 TS 19.5000 -107.800 75 hurdat_epa main 241 241 O________OO___ hurdat_epa EP041953 19.5000 -107.800 HU 75 1 19.5000 -107.800 TC 75 19.5000 -107.800 4 9 279
1953275N14258 1953 65 EP MM NOT_NAMED 1953-10-04 15:00:00 TS 19.5592 -108.250 main 286 286 P________PP___ EP041953 19.5499 -108.250 HU 75 1 19.5499 -108.250 TC 75 19.5964 -108.251 4 9 278
1953275N14258 1953 65 EP MM NOT_NAMED 1953-10-04 18:00:00 TS 19.6145 -108.702 75 hurdat_epa main 325 325 O________OP___ hurdat_epa EP041953 19.6000 -108.700 HU 75 1 19.6000 -108.700 TC 75 19.6724 -108.708 4 9 280
1953275N14258 1953 65 EP MM NOT_NAMED 1953-10-04 21:00:00 TS 19.7074 -109.158 main 363 347 P________PP___ EP041953 19.6999 -109.157 HU 75 1 19.6999 -109.157 TC 75 19.7371 -109.161 4 9 282
1953275N14258 1953 65 EP MM NOT_NAMED 1953-10-05 00:00:00 TS 19.8000 -109.600 75 hurdat_epa main 347 335 O________OO___ hurdat_epa EP041953 19.8000 -109.600 HU 75 1 19.8000 -109.600 TC 75 19.8000 -109.600 4 8 280
1953275N14258 1953 65 EP MM NOT_NAMED 1953-10-05 03:00:00 TS 19.8557 -110.014 main 335 335 P________PP___ EP041953 19.8499 -110.008 HU 75 1 19.8499 -110.008 TC 75 19.8790 -110.039 4 8 278
1953275N14258 1953 65 EP MM NOT_NAMED 1953-10-05 06:00:00 TS 19.9115 -110.412 75 hurdat_epa main 337 330 O________OP___ hurdat_epa EP041953 19.9000 -110.400 HU 75 1 19.9000 -110.400 TC 75 19.9574 -110.460 4 8 281
1953275N14258 1953 65 EP MM NOT_NAMED 1953-10-05 09:00:00 TS 20.0065 -110.828 main 334 329 P________PP___ EP041953 20.0000 -110.822 HU 75 1 20.0000 -110.822 TC 75 20.0322 -110.851 4 8 284
1953275N14258 1953 65 EP MM NOT_NAMED 1953-10-05 12:00:00 TS 20.1000 -111.200 75 hurdat_epa main 336 336 O________OO___ hurdat_epa EP041953 20.1000 -111.200 HU 75 1 20.1000 -111.200 TC 75 20.1000 -111.200 4 6 284
1953275N14258 1953 65 EP MM NOT_NAMED 1953-10-05 15:00:00 TS 20.1572 -111.478 main 339 339 P________PP___ EP041953 20.1574 -111.473 HU 75 1 20.1574 -111.473 TC 75 20.1568 -111.501 4 5 282
1953275N14258 1953 65 EP MM NOT_NAMED 1953-10-05 18:00:00 TS 20.2014 -111.712 75 hurdat_epa main 349 349 O________OP___ hurdat_epa EP041953 20.2000 -111.700 HU 75 1 20.2000 -111.700 TC 75 20.2070 -111.760 4 5 282
1953275N14258 1953 65 EP MM NOT_NAMED 1953-10-05 21:00:00 TS 20.2508 -111.964 main 356 356 P________PP___ EP041953 20.2500 -111.958 HU 75 1 20.2500 -111.958 TC 75 20.2538 -111.989 4 5 282
1953275N14258 1953 65 EP MM NOT_NAMED 1953-10-06 00:00:00 TS 20.3000 -112.200 75 hurdat_epa main 369 369 O________OO___ hurdat_epa EP041953 20.3000 -112.200 HU 75 1 20.3000 -112.200 TC 75 20.3000 -112.200 4 4 284
1953275N14258 1953 65 EP MM NOT_NAMED 1953-10-06 03:00:00 TS 20.3532 -112.409 main 373 373 P________PP___ EP041953 20.3499 -112.408 HU 75 1 20.3499 -112.408 TC 75 20.3661 -112.414 4 4 286
1953275N14258 1953 65 EP MM NOT_NAMED 1953-10-06 06:00:00 TS 20.4060 -112.603 75 hurdat_epa main 387 386 O________OP___ hurdat_epa EP041953 20.4000 -112.600 HU 75 1 20.4000 -112.600 TC 75 20.4298 -112.615 4 4 287
1953275N14258 1953 65 EP MM NOT_NAMED 1953-10-06 09:00:00 TS 20.4677 -112.802 main 394 394 P________PP___ EP041953 20.4650 -112.800 HU 75 1 20.4650 -112.800 TC 75 20.4786 -112.808 4 4 284
1953275N14258 1953 65 EP MM NOT_NAMED 1953-10-06 12:00:00 TS 20.5000 -113.000 75 hurdat_epa main 409 409 O________OO___ hurdat_epa EP041953 20.5000 -113.000 HU 75 1 20.5000 -113.000 TC 75 20.5000 -113.000 4 4 270
1953275N14258 1953 65 EP MM NOT_NAMED 1953-10-06 15:00:00 TS 20.4677 -113.199 main 425 425 P________PP___ EP041953 20.4650 -113.200 HU 75 1 20.4650 -113.200 TC 75 20.4786 -113.196 4 4 256
1953275N14258 1953 65 EP MM NOT_NAMED 1953-10-06 18:00:00 TS 20.4060 -113.399 75 hurdat_epa main 448 448 O________OP___ hurdat_epa EP041953 20.4000 -113.400 HU 75 1 20.4000 -113.400 TC 75 20.4299 -113.393 4 4 253
1953275N14258 1953 65 EP MM NOT_NAMED 1953-10-06 21:00:00 TS 20.3532 -113.593 main 465 465 P________PP___ EP041953 20.3499 -113.592 HU 75 1 20.3499 -113.592 TC 75 20.3661 -113.593 4 4 254
1953275N14258 1953 65 EP MM NOT_NAMED 1953-10-07 00:00:00 TS 20.3000 -113.800 75 hurdat_epa main 488 488 O________OO___ hurdat_epa EP041953 20.3000 -113.800 HU 75 1 20.3000 -113.800 TC 75 20.3000 -113.800 4 4 256
1953275N14258 1953 65 EP MM NOT_NAMED 1953-10-07 03:00:00 TS 20.2508 -114.043 main 505 505 P________PP___ EP041953 20.2500 -114.050 HU 75 1 20.2500 -114.050 TC 75 20.2540 -114.014 4 5 258
1953275N14258 1953 65 EP MM NOT_NAMED 1953-10-07 06:00:00 TS 20.2015 -114.287 75 hurdat_epa main 537 537 O________OP___ hurdat_epa EP041953 20.2000 -114.300 HU 75 1 20.2000 -114.300 TC 75 20.2074 -114.235 4 4 257
1953275N14258 1953 65 EP MM NOT_NAMED 1953-10-07 09:00:00 TS 20.1514 -114.493 main 554 554 P________PP___ EP041953 20.1499 -114.500 HU 75 1 20.1499 -114.500 TC 75 20.1571 -114.464 4 4 255
1953275N14258 1953 65 EP MM NOT_NAMED 1953-10-07 12:00:00 TS 20.1000 -114.700 75 hurdat_epa main 575 575 O________OO___ hurdat_epa EP041953 20.1000 -114.700 HU 75 1 20.1000 -114.700 TC 75 20.1000 -114.700 4 4 257
1953275N14258 1953 65 EP MM NOT_NAMED 1953-10-07 15:00:00 TS 20.0528 -114.943 main 586 586 P________PP___ EP041953 20.0575 -114.942 HU 75 1 20.0575 -114.942 TC 75 20.0339 -114.944 4 5 257
1953275N14258 1953 65 EP MM NOT_NAMED 1953-10-07 18:00:00 TS 19.9921 -115.199 75 hurdat_epa main 612 612 O________OP___ hurdat_epa EP041953 20.0000 -115.200 HU 75 1 20.0000 -115.200 TC 75 19.9603 -115.193 4 5 253
1953275N14258 1953 65 EP MM NOT_NAMED 1953-10-07 21:00:00 TS 19.9043 -115.451 main 639 639 P________PP___ EP041953 19.9101 -115.453 HU 75 1 19.9101 -115.453 TC 75 19.8815 -115.446 4 5 248
1953275N14258 1953 65 EP MM NOT_NAMED 1953-10-08 00:00:00 TS 19.8000 -115.700 75 hurdat_epa main 661 O________OO___ hurdat_epa EP041953 19.8000 -115.700 HU 75 1 19.8000 -115.700 TC 75 19.8000 -115.700 4 5 246

IBTrACS Databaseについて

本データベースは、米国NOAAが公開する1842年以降の世界の熱帯低気圧のベストトラックデータアーカイブInternational Best Track Archive for Climate Stewardship (IBTrACS)を、ウェブで閲覧しやすい形式に変換したものです。

最終更新日:2021-12-06